Airport View

Enter AWOS ICAO identifier for current METAR.

ex. KFNL

KFIT 212252Z AUTO 22004KT 10SM CLR 25/16 A3015 RMK AO2 SLP208 T02500156

22 Sep 2019 00:00

Frequency: 135.175

Phone: 978-343-9121

Other Area AWOS: KASH - KORH - KAFN - KBED

TAF AMD KORH 212001Z 2120/2218 23005KT P6SM SKC